CCA280 ENBR-ENSB
Flight info
| Callsign | CCA280 |
|---|---|
| Flight time | N/A |
| Altitude | 39000 |
| Route | INTUM DCT TABEV DCT 70N009E 75N012E DCT SUSES |
| Aircraft | A359/H-SDE2E3GHIJ3J4J5LM1ORWXY/LB1D1 |
Departure
| Time | 2026-04-28 05:19 |
|---|---|
| Airport | Bergen Airport, Flesland (ENBR) |
Arrival
| Time | N/A |
|---|---|
| Airport | Svalbard Airport, Longyear (ENSB) |
| Time | Latitude | Longitude | Altitude | Speed | Heading |
|---|---|---|---|---|---|
| 2026-04-28 05:09 | 60.28894 | 5.22511 | 157 ft | 0 kts | 102° |
| 2026-04-28 05:13 | 60.28897 | 5.22483 | 156 ft | 2 kts | 103° |
| 2026-04-28 05:13 | 60.28901 | 5.22452 | 156 ft | 3 kts | 97° |
| 2026-04-28 05:13 | 60.28905 | 5.22418 | 157 ft | 3 kts | 131° |
| 2026-04-28 05:13 | 60.28918 | 5.22395 | 157 ft | 0 kts | 167° |
| 2026-04-28 05:15 | 60.28916 | 5.22396 | 157 ft | 1 kts | 167° |
| 2026-04-28 05:15 | 60.28860 | 5.22420 | 156 ft | 16 kts | 172° |
| 2026-04-28 05:15 | 60.28720 | 5.22466 | 155 ft | 21 kts | 170° |
| 2026-04-28 05:16 | 60.28581 | 5.22509 | 154 ft | 19 kts | 171° |
| 2026-04-28 05:16 | 60.28445 | 5.22555 | 153 ft | 24 kts | 171° |
| 2026-04-28 05:16 | 60.28298 | 5.22604 | 151 ft | 2 kts | 178° |
| 2026-04-28 05:17 | 60.28279 | 5.22544 | 151 ft | 11 kts | 257° |
| 2026-04-28 05:17 | 60.28281 | 5.22278 | 151 ft | 22 kts | 271° |
| 2026-04-28 05:17 | 60.28290 | 5.22192 | 152 ft | 0 kts | 295° |
| 2026-04-28 05:17 | 60.28305 | 5.22180 | 152 ft | 6 kts | 342° |
| 2026-04-28 05:18 | 60.28399 | 5.22135 | 153 ft | 23 kts | 352° |
| 2026-04-28 05:18 | 60.28758 | 5.22014 | 156 ft | 84 kts | 349° |
| 2026-04-28 05:18 | 60.29522 | 5.21756 | 161 ft | 137 kts | 350° |
| 2026-04-28 05:18 | 60.30528 | 5.21422 | 600 ft | 142 kts | 351° |
| 2026-04-28 05:19 | 60.31566 | 5.21074 | 931 ft | 161 kts | 351° |
| 2026-04-28 05:19 | 60.32713 | 5.20670 | 1278 ft | 178 kts | 350° |
| 2026-04-28 05:19 | 60.34015 | 5.20226 | 1513 ft | 203 kts | 351° |
| 2026-04-28 05:19 | 60.35491 | 5.19734 | 1792 ft | 226 kts | 351° |
| 2026-04-28 05:20 | 60.37124 | 5.19197 | 2128 ft | 248 kts | 351° |
| 2026-04-28 05:20 | 60.38885 | 5.19124 | 2691 ft | 256 kts | 4° |
| 2026-04-28 05:20 | 60.40676 | 5.19449 | 3376 ft | 260 kts | 7° |
| 2026-04-28 05:20 | 60.42486 | 5.19934 | 4058 ft | 264 kts | 9° |
| 2026-04-28 05:21 | 60.44292 | 5.20508 | 4717 ft | 267 kts | 9° |
| 2026-04-28 05:21 | 60.46157 | 5.21144 | 5409 ft | 270 kts | 10° |
| 2026-04-28 05:21 | 60.47991 | 5.21781 | 6099 ft | 272 kts | 10° |
| 2026-04-28 05:21 | 60.49870 | 5.22430 | 6833 ft | 275 kts | 10° |
| 2026-04-28 05:22 | 60.51773 | 5.23078 | 7559 ft | 278 kts | 10° |
| 2026-04-28 05:22 | 60.53692 | 5.23723 | 8285 ft | 281 kts | 10° |
| 2026-04-28 05:22 | 60.55611 | 5.24362 | 9021 ft | 284 kts | 10° |
| 2026-04-28 05:22 | 60.57574 | 5.25011 | 9753 ft | 286 kts | 9° |
| 2026-04-28 05:23 | 60.59564 | 5.25669 | 10318 ft | 297 kts | 9° |
| 2026-04-28 05:23 | 60.61659 | 5.26362 | 10682 ft | 313 kts | 9° |
| 2026-04-28 05:23 | 60.63880 | 5.27099 | 11083 ft | 329 kts | 9° |
| 2026-04-28 05:23 | 60.66185 | 5.27865 | 11463 ft | 343 kts | 9° |
| 2026-04-28 05:24 | 60.68588 | 5.28665 | 11861 ft | 357 kts | 9° |
| 2026-04-28 05:24 | 60.71037 | 5.29482 | 12305 ft | 366 kts | 9° |
| 2026-04-28 05:24 | 60.73584 | 5.30332 | 12900 ft | 372 kts | 9° |
| 2026-04-28 05:24 | 60.76156 | 5.31191 | 13484 ft | 377 kts | 9° |
| 2026-04-28 05:25 | 60.78760 | 5.32063 | 14051 ft | 382 kts | 9° |
| 2026-04-28 05:25 | 60.81409 | 5.32951 | 14655 ft | 386 kts | 9° |
| 2026-04-28 05:25 | 60.84059 | 5.33842 | 15243 ft | 390 kts | 9° |
| 2026-04-28 05:25 | 60.86750 | 5.34749 | 15817 ft | 393 kts | 9° |
| 2026-04-28 05:26 | 60.89459 | 5.35664 | 16400 ft | 397 kts | 9° |
| 2026-04-28 05:26 | 60.92197 | 5.36589 | 16928 ft | 401 kts | 9° |
| 2026-04-28 05:26 | 60.94959 | 5.37525 | 17517 ft | 405 kts | 9° |
| 2026-04-28 05:26 | 60.97753 | 5.38472 | 18086 ft | 408 kts | 9° |
| 2026-04-28 05:27 | 60.99613 | 5.39103 | 18449 ft | 411 kts | 9° |
| 2026-04-28 05:27 | 61.02468 | 5.40074 | 19016 ft | 414 kts | 9° |
| 2026-04-28 05:27 | 61.05307 | 5.41041 | 19630 ft | 417 kts | 9° |
| 2026-04-28 05:27 | 61.08180 | 5.42022 | 20202 ft | 420 kts | 9° |
| 2026-04-28 05:28 | 61.11083 | 5.43014 | 20708 ft | 424 kts | 9° |
| 2026-04-28 05:28 | 61.14018 | 5.44020 | 21224 ft | 428 kts | 9° |
| 2026-04-28 05:28 | 61.16961 | 5.45031 | 21757 ft | 431 kts | 9° |
| 2026-04-28 05:28 | 61.19928 | 5.46052 | 22263 ft | 435 kts | 9° |
| 2026-04-28 05:29 | 61.22933 | 5.47088 | 22737 ft | 439 kts | 9° |
| 2026-04-28 05:29 | 61.25942 | 5.48128 | 23239 ft | 441 kts | 9° |
| 2026-04-28 05:29 | 61.28993 | 5.49183 | 23765 ft | 444 kts | 9° |
| 2026-04-28 05:29 | 61.32062 | 5.50247 | 24207 ft | 448 kts | 9° |
| 2026-04-28 05:30 | 61.35143 | 5.51317 | 24692 ft | 451 kts | 10° |
| 2026-04-28 05:30 | 61.38253 | 5.52400 | 25155 ft | 454 kts | 10° |
| 2026-04-28 05:30 | 61.41374 | 5.53488 | 25598 ft | 457 kts | 10° |
| 2026-04-28 05:30 | 61.44535 | 5.54593 | 26006 ft | 461 kts | 10° |
| 2026-04-28 05:31 | 61.47693 | 5.55699 | 26485 ft | 462 kts | 10° |
| 2026-04-28 05:31 | 61.50838 | 5.56803 | 26892 ft | 466 kts | 10° |
| 2026-04-28 05:31 | 61.54056 | 5.57934 | 27262 ft | 469 kts | 10° |
| 2026-04-28 05:31 | 61.57283 | 5.59072 | 27674 ft | 472 kts | 10° |
| 2026-04-28 05:32 | 61.60537 | 5.60221 | 28072 ft | 475 kts | 10° |
| 2026-04-28 05:32 | 61.63813 | 5.61380 | 28465 ft | 477 kts | 10° |
| 2026-04-28 05:32 | 61.67086 | 5.62541 | 28819 ft | 480 kts | 10° |
| 2026-04-28 05:32 | 61.70389 | 5.63716 | 29156 ft | 483 kts | 10° |
| 2026-04-28 05:33 | 61.73719 | 5.64902 | 29442 ft | 487 kts | 10° |
| 2026-04-28 05:33 | 61.77072 | 5.66099 | 29703 ft | 491 kts | 10° |
| 2026-04-28 05:33 | 61.80416 | 5.67295 | 30034 ft | 492 kts | 10° |
| 2026-04-28 05:33 | 61.83799 | 5.68508 | 30389 ft | 493 kts | 10° |
| 2026-04-28 05:34 | 61.87177 | 5.69722 | 30709 ft | 494 kts | 10° |
| 2026-04-28 05:34 | 61.90577 | 5.70946 | 31079 ft | 494 kts | 10° |
| 2026-04-28 05:34 | 61.93931 | 5.72157 | 31496 ft | 492 kts | 10° |
| 2026-04-28 05:34 | 61.97356 | 5.73397 | 31804 ft | 493 kts | 10° |
| 2026-04-28 05:35 | 62.00743 | 5.74625 | 32122 ft | 494 kts | 10° |
| 2026-04-28 05:35 | 62.04115 | 5.75850 | 32428 ft | 494 kts | 10° |
| 2026-04-28 05:35 | 62.07498 | 5.77083 | 32747 ft | 493 kts | 10° |
| 2026-04-28 05:35 | 62.10882 | 5.78318 | 33099 ft | 492 kts | 10° |
| 2026-04-28 05:36 | 62.14209 | 5.79536 | 33421 ft | 491 kts | 10° |
| 2026-04-28 05:36 | 62.17590 | 5.80776 | 33701 ft | 491 kts | 10° |
| 2026-04-28 05:36 | 62.20980 | 5.82023 | 34052 ft | 489 kts | 10° |
| 2026-04-28 05:36 | 62.24320 | 5.83253 | 34399 ft | 487 kts | 10° |
| 2026-04-28 05:37 | 62.27627 | 5.84475 | 34685 ft | 486 kts | 10° |
| 2026-04-28 05:37 | 62.30988 | 5.85718 | 34954 ft | 485 kts | 10° |
| 2026-04-28 05:37 | 62.34318 | 5.86954 | 35194 ft | 485 kts | 10° |
| 2026-04-28 05:37 | 62.37594 | 5.88172 | 35423 ft | 485 kts | 10° |
| 2026-04-28 05:38 | 62.40939 | 5.89419 | 35636 ft | 485 kts | 10° |
| 2026-04-28 05:38 | 62.44295 | 5.90672 | 35849 ft | 484 kts | 10° |
| 2026-04-28 05:38 | 62.47616 | 5.91915 | 36110 ft | 483 kts | 10° |
| 2026-04-28 05:38 | 62.50929 | 5.93157 | 36337 ft | 482 kts | 10° |
| 2026-04-28 05:39 | 62.54232 | 5.94399 | 36520 ft | 482 kts | 10° |
| 2026-04-28 05:39 | 62.57495 | 5.95629 | 36696 ft | 482 kts | 10° |
| 2026-04-28 05:39 | 62.60803 | 5.96878 | 36861 ft | 482 kts | 10° |
| 2026-04-28 05:39 | 62.64102 | 5.98127 | 37025 ft | 482 kts | 10° |
| 2026-04-28 05:40 | 62.67408 | 5.99381 | 37176 ft | 482 kts | 10° |
| 2026-04-28 05:40 | 62.70715 | 6.00639 | 37336 ft | 482 kts | 10° |
| 2026-04-28 05:40 | 62.74021 | 6.01899 | 37483 ft | 482 kts | 10° |
| 2026-04-28 05:40 | 62.77327 | 6.03162 | 37628 ft | 482 kts | 10° |
| 2026-04-28 05:41 | 62.80635 | 6.04428 | 37766 ft | 482 kts | 10° |
| 2026-04-28 05:41 | 62.83940 | 6.05696 | 37900 ft | 482 kts | 10° |
| 2026-04-28 05:41 | 62.87250 | 6.06969 | 38028 ft | 482 kts | 10° |
| 2026-04-28 05:41 | 62.90562 | 6.08246 | 38157 ft | 482 kts | 10° |
| 2026-04-28 05:42 | 62.93835 | 6.09511 | 38265 ft | 482 kts | 10° |
| 2026-04-28 05:42 | 62.97140 | 6.10791 | 38385 ft | 482 kts | 10° |
| 2026-04-28 05:42 | 63.00453 | 6.12077 | 38492 ft | 482 kts | 10° |
| 2026-04-28 05:42 | 63.03758 | 6.13362 | 38605 ft | 482 kts | 10° |
| 2026-04-28 05:43 | 63.07070 | 6.14654 | 38710 ft | 482 kts | 10° |
| 2026-04-28 05:43 | 63.10373 | 6.15945 | 38807 ft | 483 kts | 10° |
| 2026-04-28 05:43 | 63.17012 | 6.18549 | 38837 ft | 486 kts | 10° |
| 2026-04-28 05:44 | 63.23680 | 6.21176 | 38836 ft | 487 kts | 10° |
| 2026-04-28 05:44 | 63.30291 | 6.23793 | 38835 ft | 486 kts | 10° |
| 2026-04-28 05:45 | 63.36996 | 6.26460 | 38836 ft | 486 kts | 10° |
| 2026-04-28 05:45 | 63.43665 | 6.29125 | 38836 ft | 486 kts | 10° |
| 2026-04-28 05:46 | 63.50346 | 6.31807 | 38836 ft | 486 kts | 10° |
| 2026-04-28 05:46 | 63.56958 | 6.34475 | 38836 ft | 486 kts | 11° |
| 2026-04-28 05:47 | 63.63625 | 6.37178 | 38836 ft | 486 kts | 11° |
| 2026-04-28 05:47 | 63.70293 | 6.39893 | 38836 ft | 486 kts | 11° |
| 2026-04-28 05:48 | 63.76956 | 6.42620 | 38836 ft | 486 kts | 11° |
| 2026-04-28 05:48 | 63.83592 | 6.45349 | 38836 ft | 486 kts | 11° |
| 2026-04-28 05:49 | 63.90293 | 6.48118 | 38836 ft | 486 kts | 11° |
| 2026-04-28 05:49 | 63.96911 | 6.50865 | 38836 ft | 486 kts | 11° |
| 2026-04-28 05:50 | 64.03571 | 6.53644 | 38836 ft | 486 kts | 11° |
| 2026-04-28 05:50 | 64.10235 | 6.56438 | 38836 ft | 486 kts | 11° |
| 2026-04-28 05:51 | 64.16889 | 6.59241 | 38836 ft | 486 kts | 11° |
| 2026-04-28 05:51 | 64.23548 | 6.62060 | 38836 ft | 486 kts | 11° |
| 2026-04-28 05:52 | 64.30174 | 6.64879 | 38836 ft | 486 kts | 11° |
| 2026-04-28 05:52 | 64.36833 | 6.67725 | 38836 ft | 486 kts | 11° |
| 2026-04-28 05:53 | 64.43497 | 6.70588 | 38836 ft | 486 kts | 11° |
| 2026-04-28 05:53 | 64.50159 | 6.73465 | 38836 ft | 486 kts | 11° |
| 2026-04-28 05:54 | 64.56816 | 6.76353 | 38836 ft | 486 kts | 11° |
| 2026-04-28 05:54 | 64.63437 | 6.79240 | 38836 ft | 486 kts | 11° |
| 2026-04-28 05:55 | 64.70100 | 6.82159 | 38836 ft | 486 kts | 11° |
| 2026-04-28 05:55 | 64.76749 | 6.85088 | 38836 ft | 486 kts | 11° |
| 2026-04-28 05:56 | 64.83409 | 6.88036 | 38836 ft | 486 kts | 11° |
| 2026-04-28 05:56 | 64.90059 | 6.90994 | 38836 ft | 486 kts | 11° |
| 2026-04-28 05:57 | 64.96668 | 6.93949 | 38836 ft | 486 kts | 11° |
| 2026-04-28 05:57 | 65.03320 | 6.96938 | 38836 ft | 486 kts | 11° |
| 2026-04-28 05:58 | 65.09983 | 6.99947 | 38836 ft | 486 kts | 11° |
| 2026-04-28 05:58 | 65.16635 | 7.02967 | 38836 ft | 486 kts | 11° |
| 2026-04-28 05:59 | 65.23282 | 7.06000 | 38836 ft | 486 kts | 11° |
| 2026-04-28 05:59 | 65.29884 | 7.09028 | 38836 ft | 486 kts | 11° |
| 2026-04-28 06:00 | 65.36541 | 7.12097 | 38836 ft | 486 kts | 11° |
| 2026-04-28 06:00 | 65.43187 | 7.15177 | 38836 ft | 486 kts | 11° |
| 2026-04-28 06:01 | 65.49840 | 7.18275 | 38836 ft | 486 kts | 11° |
| 2026-04-28 06:01 | 65.56491 | 7.21389 | 38836 ft | 486 kts | 11° |
| 2026-04-28 06:02 | 65.63138 | 7.24517 | 38836 ft | 486 kts | 11° |
| 2026-04-28 06:02 | 65.69777 | 7.27658 | 38836 ft | 486 kts | 11° |
| 2026-04-28 06:03 | 65.76422 | 7.30818 | 38835 ft | 486 kts | 11° |
| 2026-04-28 06:03 | 65.83023 | 7.33974 | 38836 ft | 486 kts | 11° |
| 2026-04-28 06:04 | 65.89668 | 7.37168 | 38836 ft | 486 kts | 11° |
| 2026-04-28 06:04 | 65.96218 | 7.41299 | 38836 ft | 485 kts | 22° |
| 2026-04-28 06:05 | 66.02017 | 7.49634 | 38836 ft | 483 kts | 41° |
| 2026-04-28 06:05 | 66.06310 | 7.62105 | 38840 ft | 482 kts | 60° |
| 2026-04-28 06:06 | 66.09486 | 7.76641 | 38836 ft | 482 kts | 63° |
| 2026-04-28 06:06 | 66.12585 | 7.91338 | 38836 ft | 483 kts | 63° |
| 2026-04-28 06:07 | 66.15679 | 8.06067 | 38836 ft | 483 kts | 63° |
| 2026-04-28 06:07 | 66.18761 | 8.20823 | 38836 ft | 483 kts | 63° |
| 2026-04-28 06:08 | 66.21830 | 8.35613 | 38836 ft | 483 kts | 63° |
| 2026-04-28 06:08 | 66.24862 | 8.50325 | 38836 ft | 483 kts | 63° |
| 2026-04-28 06:09 | 66.27909 | 8.65214 | 38836 ft | 483 kts | 64° |
| 2026-04-28 06:09 | 66.30938 | 8.80117 | 38836 ft | 483 kts | 64° |
| 2026-04-28 06:10 | 66.33951 | 8.95055 | 38836 ft | 483 kts | 64° |
| 2026-04-28 06:10 | 66.36950 | 9.10027 | 38836 ft | 483 kts | 64° |
| 2026-04-28 06:11 | 66.39915 | 9.24935 | 38836 ft | 483 kts | 64° |
| 2026-04-28 06:11 | 66.42889 | 9.39995 | 38836 ft | 483 kts | 64° |
| 2026-04-28 06:12 | 66.45844 | 9.55073 | 38836 ft | 483 kts | 64° |
| 2026-04-28 06:12 | 66.48781 | 9.70165 | 38664 ft | 479 kts | 64° |
| 2026-04-28 06:13 | 66.50235 | 9.77676 | 37946 ft | 480 kts | 65° |
| 2026-04-28 06:13 | 66.51693 | 9.85239 | 37166 ft | 483 kts | 65° |
| 2026-04-28 06:13 | 66.52660 | 9.90267 | 36661 ft | 484 kts | 65° |
| 2026-04-28 06:13 | 66.54599 | 10.00392 | 35653 ft | 486 kts | 65° |
| 2026-04-28 06:14 | 66.56061 | 10.08056 | 34850 ft | 488 kts | 65° |
| 2026-04-28 06:14 | 66.57524 | 10.15758 | 34027 ft | 489 kts | 65° |
| 2026-04-28 06:14 | 66.58515 | 10.20989 | 33478 ft | 491 kts | 65° |
| 2026-04-28 06:14 | 66.59981 | 10.28757 | 32643 ft | 492 kts | 65° |
| 2026-04-28 06:15 | 66.61430 | 10.36461 | 31785 ft | 494 kts | 65° |
| 2026-04-28 06:15 | 66.62918 | 10.44402 | 30875 ft | 496 kts | 65° |
| 2026-04-28 06:15 | 66.64370 | 10.52181 | 29989 ft | 498 kts | 65° |
| 2026-04-28 06:15 | 66.66341 | 10.62790 | 28829 ft | 499 kts | 65° |
| 2026-04-28 06:16 | 66.67313 | 10.68043 | 28344 ft | 497 kts | 65° |
| 2026-04-28 06:16 | 66.68769 | 10.75931 | 27672 ft | 494 kts | 65° |
| 2026-04-28 06:16 | 66.70208 | 10.83766 | 27022 ft | 490 kts | 65° |
| 2026-04-28 06:16 | 66.71632 | 10.91546 | 26387 ft | 485 kts | 66° |
| 2026-04-28 06:17 | 66.73039 | 10.99259 | 25781 ft | 481 kts | 66° |
| 2026-04-28 06:17 | 66.74431 | 11.06925 | 25168 ft | 477 kts | 66° |
| 2026-04-28 06:17 | 66.75810 | 11.14544 | 24549 ft | 472 kts | 66° |
| 2026-04-28 06:18 | 66.78493 | 11.29455 | 23325 ft | 464 kts | 66° |
| 2026-04-28 06:18 | 66.79822 | 11.36883 | 22704 ft | 460 kts | 66° |
| 2026-04-28 06:18 | 66.81136 | 11.44255 | 22077 ft | 455 kts | 66° |
| 2026-04-28 06:18 | 66.82435 | 11.51568 | 21449 ft | 451 kts | 66° |
| 2026-04-28 06:19 | 66.83718 | 11.58816 | 20820 ft | 447 kts | 66° |
| 2026-04-28 06:19 | 66.84969 | 11.65912 | 20199 ft | 443 kts | 66° |
| 2026-04-28 06:19 | 66.86221 | 11.73035 | 19569 ft | 439 kts | 66° |
| 2026-04-28 06:19 | 66.87460 | 11.80116 | 18937 ft | 435 kts | 66° |
| 2026-04-28 06:20 | 66.88683 | 11.87123 | 18307 ft | 431 kts | 66° |
| 2026-04-28 06:20 | 66.89893 | 11.94086 | 17685 ft | 427 kts | 66° |
| 2026-04-28 06:20 | 66.91086 | 12.00971 | 17061 ft | 423 kts | 67° |
| 2026-04-28 06:20 | 66.92271 | 12.07833 | 16429 ft | 419 kts | 67° |
| 2026-04-28 06:21 | 66.93438 | 12.14615 | 15799 ft | 416 kts | 67° |
| 2026-04-28 06:21 | 66.94578 | 12.21265 | 15180 ft | 412 kts | 67° |
| 2026-04-28 06:21 | 66.95720 | 12.27951 | 14554 ft | 408 kts | 67° |
| 2026-04-28 06:21 | 66.96837 | 12.34507 | 13718 ft | 397 kts | 67° |
| 2026-04-28 06:22 | 66.97911 | 12.40831 | 13014 ft | 380 kts | 67° |
| 2026-04-28 06:22 | 66.98952 | 12.46985 | 11735 ft | 378 kts | 67° |
| 2026-04-28 06:22 | 67.00007 | 12.53241 | 10242 ft | 384 kts | 67° |
| 2026-04-28 06:22 | 67.01054 | 12.59474 | 9709 ft | 376 kts | 67° |
| 2026-04-28 06:23 | 67.02061 | 12.65477 | 9572 ft | 358 kts | 68° |
| 2026-04-28 06:23 | 67.03021 | 12.71218 | 9439 ft | 342 kts | 68° |
| 2026-04-28 06:23 | 67.03926 | 12.76654 | 9227 ft | 330 kts | 68° |
| 2026-04-28 06:23 | 67.04804 | 12.81937 | 9081 ft | 316 kts | 68° |
| 2026-04-28 06:24 | 67.05648 | 12.87028 | 8905 ft | 304 kts | 68° |
| 2026-04-28 06:24 | 67.06458 | 12.91932 | 8715 ft | 293 kts | 68° |
| 2026-04-28 06:24 | 67.07244 | 12.96699 | 8416 ft | 288 kts | 68° |
| 2026-04-28 06:24 | 67.07995 | 13.01269 | 8148 ft | 281 kts | 68° |
| 2026-04-28 06:25 | 67.08764 | 13.05962 | 7893 ft | 278 kts | 68° |
| 2026-04-28 06:25 | 67.09512 | 13.10532 | 7646 ft | 278 kts | 68° |
| 2026-04-28 06:25 | 67.10258 | 13.15103 | 7385 ft | 277 kts | 68° |
| 2026-04-28 06:25 | 67.10999 | 13.19649 | 7132 ft | 276 kts | 68° |
| 2026-04-28 06:26 | 67.11738 | 13.24199 | 6921 ft | 274 kts | 68° |
| 2026-04-28 06:26 | 67.12472 | 13.28721 | 6832 ft | 274 kts | 68° |
| 2026-04-28 06:26 | 67.13196 | 13.33195 | 6831 ft | 270 kts | 68° |
| 2026-04-28 06:26 | 67.13893 | 13.37508 | 6826 ft | 253 kts | 68° |
| 2026-04-28 06:27 | 67.14545 | 13.41553 | 6824 ft | 236 kts | 69° |
| 2026-04-28 06:27 | 67.15156 | 13.45351 | 6827 ft | 225 kts | 69° |
| 2026-04-28 06:27 | 67.15749 | 13.49050 | 6834 ft | 223 kts | 69° |
| 2026-04-28 06:27 | 67.16342 | 13.52761 | 6834 ft | 223 kts | 69° |
| 2026-04-28 06:28 | 67.16932 | 13.56461 | 6834 ft | 223 kts | 69° |
| 2026-04-28 06:28 | 67.17522 | 13.60161 | 6839 ft | 223 kts | 69° |
| 2026-04-28 06:28 | 67.18110 | 13.63856 | 6836 ft | 223 kts | 69° |
| 2026-04-28 06:28 | 67.18699 | 13.67566 | 6835 ft | 223 kts | 69° |
| 2026-04-28 06:29 | 67.19287 | 13.71271 | 6835 ft | 223 kts | 69° |
| 2026-04-28 06:29 | 67.19867 | 13.74935 | 6835 ft | 223 kts | 69° |
| 2026-04-28 06:29 | 67.20455 | 13.78652 | 6835 ft | 223 kts | 69° |
| 2026-04-28 06:29 | 67.21041 | 13.82373 | 6835 ft | 223 kts | 69° |
| 2026-04-28 06:30 | 67.21625 | 13.86085 | 6835 ft | 224 kts | 69° |
| 2026-04-28 06:30 | 67.22210 | 13.89810 | 6835 ft | 224 kts | 69° |
| 2026-04-28 06:30 | 67.22793 | 13.93532 | 6831 ft | 224 kts | 69° |
| 2026-04-28 06:30 | 67.23378 | 13.97268 | 6835 ft | 224 kts | 69° |
| 2026-04-28 06:31 | 67.23945 | 14.00959 | 6833 ft | 223 kts | 72° |
| 2026-04-28 06:31 | 67.24130 | 14.04888 | 6832 ft | 221 kts | 100° |
| 2026-04-28 06:31 | 67.23508 | 14.08420 | 6841 ft | 217 kts | 133° |
| 2026-04-28 06:31 | 67.22239 | 14.10426 | 6834 ft | 217 kts | 166° |
| 2026-04-28 06:32 | 67.20742 | 14.10332 | 6835 ft | 218 kts | 198° |
| 2026-04-28 06:32 | 67.19488 | 14.08190 | 6841 ft | 220 kts | 229° |
| 2026-04-28 06:32 | 67.18655 | 14.04869 | 6837 ft | 222 kts | 240° |
| 2026-04-28 06:32 | 67.17920 | 14.01355 | 6836 ft | 223 kts | 240° |
| 2026-04-28 06:33 | 67.17166 | 13.97861 | 6835 ft | 223 kts | 239° |
| 2026-04-28 06:33 | 67.16399 | 13.94371 | 6835 ft | 224 kts | 239° |
| 2026-04-28 06:33 | 67.15852 | 13.90639 | 6830 ft | 225 kts | 261° |
| 2026-04-28 06:33 | 67.16083 | 13.86705 | 6833 ft | 225 kts | 297° |
| 2026-04-28 06:34 | 67.17158 | 13.83849 | 6837 ft | 225 kts | 332° |
| 2026-04-28 06:34 | 67.18643 | 13.82957 | 6836 ft | 225 kts | 4° |
| 2026-04-28 06:34 | 67.20102 | 13.84228 | 6835 ft | 223 kts | 37° |
| 2026-04-28 06:34 | 67.21110 | 13.87211 | 6844 ft | 221 kts | 60° |
| 2026-04-28 06:35 | 67.21866 | 13.90681 | 6837 ft | 223 kts | 63° |
| 2026-04-28 06:35 | 67.22596 | 13.94223 | 6831 ft | 224 kts | 63° |
| 2026-04-28 06:35 | 67.23334 | 13.97765 | 6835 ft | 224 kts | 63° |
| 2026-04-28 06:35 | 67.24005 | 14.01371 | 6831 ft | 223 kts | 73° |
| 2026-04-28 06:36 | 67.24115 | 14.05300 | 6838 ft | 219 kts | 104° |
| 2026-04-28 06:36 | 67.23400 | 14.08688 | 6837 ft | 217 kts | 137° |
| 2026-04-28 06:36 | 67.22107 | 14.10463 | 6835 ft | 217 kts | 169° |
| 2026-04-28 06:36 | 67.20617 | 14.10169 | 6835 ft | 218 kts | 201° |
| 2026-04-28 06:37 | 67.19407 | 14.07855 | 6838 ft | 220 kts | 232° |
| 2026-04-28 06:37 | 67.18591 | 14.04492 | 6838 ft | 222 kts | 240° |
| 2026-04-28 06:37 | 67.17840 | 14.00962 | 6832 ft | 224 kts | 240° |
| 2026-04-28 06:37 | 67.17086 | 13.97521 | 6841 ft | 223 kts | 239° |
| 2026-04-28 06:38 | 67.16328 | 13.94035 | 6835 ft | 223 kts | 241° |
| 2026-04-28 06:38 | 67.15834 | 13.90235 | 6668 ft | 229 kts | 263° |
| 2026-04-28 06:38 | 67.16074 | 13.86162 | 6264 ft | 232 kts | 294° |
| 2026-04-28 06:38 | 67.17121 | 13.83182 | 5882 ft | 225 kts | 333° |
| 2026-04-28 06:39 | 67.18629 | 13.82512 | 5360 ft | 222 kts | 9° |
| 2026-04-28 06:39 | 67.20043 | 13.83915 | 4927 ft | 216 kts | 37° |
| 2026-04-28 06:39 | 67.21038 | 13.86707 | 4489 ft | 210 kts | 59° |
| 2026-04-28 06:39 | 67.21748 | 13.89994 | 4030 ft | 209 kts | 64° |
| 2026-04-28 06:40 | 67.22412 | 13.93282 | 3556 ft | 208 kts | 63° |
| 2026-04-28 06:40 | 67.23088 | 13.96574 | 3101 ft | 207 kts | 63° |
| 2026-04-28 06:40 | 67.23746 | 13.99872 | 2865 ft | 207 kts | 69° |
| 2026-04-28 06:40 | 67.24134 | 14.03442 | 2814 ft | 206 kts | 80° |
| 2026-04-28 06:41 | 67.24427 | 14.06991 | 2568 ft | 194 kts | 78° |
| 2026-04-28 06:41 | 67.24704 | 14.10235 | 2433 ft | 180 kts | 79° |
| 2026-04-28 06:41 | 67.24975 | 14.13405 | 1939 ft | 185 kts | 79° |
| 2026-04-28 06:41 | 67.25257 | 14.16722 | 1376 ft | 189 kts | 79° |
| 2026-04-28 06:42 | 67.25528 | 14.19915 | 1100 ft | 173 kts | 79° |
| 2026-04-28 06:42 | 67.25773 | 14.22837 | 879 ft | 161 kts | 79° |
| 2026-04-28 06:42 | 67.26004 | 14.25597 | 663 ft | 153 kts | 79° |
| 2026-04-28 06:42 | 67.26227 | 14.28261 | 460 ft | 151 kts | 79° |
| 2026-04-28 06:43 | 67.26449 | 14.30923 | 259 ft | 152 kts | 79° |
| 2026-04-28 06:43 | 67.26672 | 14.33587 | 61 ft | 151 kts | 79° |
| 2026-04-28 06:43 | 67.26869 | 14.36031 | 45 ft | 133 kts | 79° |
| 2026-04-28 06:43 | 67.27005 | 14.37797 | 50 ft | 65 kts | 76° |
| 2026-04-28 06:44 | 67.27062 | 14.38393 | 49 ft | 3 kts | 76° |
| 2026-04-28 06:44 | 67.27064 | 14.38411 | 51 ft | 1 kts | 76° |
| 2026-04-28 06:44 | 67.27067 | 14.38442 | 51 ft | 2 kts | 76° |
| 2026-04-28 06:44 | 67.27070 | 14.38482 | 50 ft | 2 kts | 76° |
| 2026-04-28 06:45 | 67.27074 | 14.38522 | 48 ft | 2 kts | 77° |
| 2026-04-28 06:45 | 67.27075 | 14.38537 | 50 ft | 0 kts | 77° |